Time;durP1;ratioP1;P1;durP2;ratioP2;P2;SDS_P1;SDS_P2;PMS_P1;PMS_P2;Temp;Humidity;BMP_temperature;BMP_pressure;BME280_temperature;BME280_humidity;BME280_pressure;Samples;Min_cycle;Max_cycle;Signal;HPM_P1;HPM_P2
2021/06/28 00:02:04;;;;;;;0.00;0.00;;;17.30;99.90;;;;;;4972608;28;20284;-68
2021/06/28 00:04:31;;;;;;;0.00;0.00;;;17.20;99.90;;;;;;4971707;28;20607;-66
2021/06/28 00:06:58;;;;;;;0.00;0.00;;;17.20;99.90;;;;;;4973489;28;20214;-67
2021/06/28 00:09:27;;;;;;;0.00;0.00;;;17.20;99.90;;;;;;4972970;28;20210;-72
2021/06/28 00:11:54;;;;;;;0.00;0.00;;;17.20;99.90;;;;;;4971602;28;20202;-68
2021/06/28 00:14:21;;;;;;;0.00;0.00;;;17.10;99.90;;;;;;4966482;28;20207;-67
2021/06/28 00:16:48;;;;;;;0.00;0.00;;;17.10;99.90;;;;;;4969267;28;20273;-73
2021/06/28 00:19:15;;;;;;;0.00;0.00;;;17.10;99.90;;;;;;4972971;28;20261;-68
2021/06/28 00:21:42;;;;;;;0.00;0.00;;;17.10;99.90;;;;;;4973493;28;20273;-69
2021/06/28 00:24:09;;;;;;;0.00;0.00;;;17.00;99.90;;;;;;4973862;28;20198;-68
2021/06/28 00:26:38;;;;;;;0.00;0.00;;;17.00;99.90;;;;;;4971466;28;20270;-67
2021/06/28 00:29:05;;;;;;;0.00;0.00;;;17.00;99.90;;;;;;4972102;28;20206;-68
2021/06/28 00:31:32;;;;;;;0.00;0.00;;;17.00;99.90;;;;;;4973909;28;20214;-68
2021/06/28 00:34:01;;;;;;;0.00;0.00;;;16.90;99.90;;;;;;4972090;28;20735;-68
2021/06/28 00:36:28;;;;;;;0.00;0.00;;;16.90;99.90;;;;;;4972829;28;20207;-69
2021/06/28 00:38:55;;;;;;;0.00;0.00;;;16.90;99.90;;;;;;4973707;28;20272;-66
2021/06/28 00:41:22;;;;;;;0.00;0.00;;;16.80;99.90;;;;;;4970685;28;20229;-67
2021/06/28 00:43:51;;;;;;;0.00;0.00;;;16.90;99.90;;;;;;4970305;28;20207;-68
2021/06/28 00:46:18;;;;;;;0.00;0.00;;;16.90;99.90;;;;;;4971521;28;20210;-67
2021/06/28 00:48:45;;;;;;;0.00;0.00;;;16.90;99.90;;;;;;4961320;28;20198;-70
2021/06/28 00:51:12;;;;;;;0.37;0.37;;;16.90;99.90;;;;;;4969904;28;20723;-67
2021/06/28 00:53:39;;;;;;;0.00;0.00;;;17.00;99.90;;;;;;4971685;28;20202;-67
2021/06/28 00:56:12;;;;;;;0.00;0.00;;;17.00;99.90;;;;;;4972972;28;20230;-69
2021/06/28 00:58:41;;;;;;;0.00;0.00;;;17.00;99.90;;;;;;4972949;28;20293;-70
2021/06/28 01:01:11;;;;;;;0.00;0.00;;;17.00;99.90;;;;;;4971778;28;20219;-67
2021/06/28 01:03:38;;;;;;;0.00;0.00;;;17.00;99.90;;;;;;4973446;28;20217;-68
2021/06/28 01:06:07;;;;;;;0.00;0.00;;;17.00;99.90;;;;;;4970027;28;20203;-68
2021/06/28 01:08:34;;;;;;;0.00;0.00;;;17.00;99.90;;;;;;4970829;28;20202;-68
2021/06/28 01:11:02;;;;;;;0.00;0.00;;;17.00;99.90;;;;;;4968601;28;20198;-69
2021/06/28 01:13:31;;;;;;;0.00;0.00;;;17.00;99.90;;;;;;4973924;28;20297;-68
2021/06/28 01:15:59;;;;;;;0.00;0.00;;;17.00;99.90;;;;;;4970602;28;20240;-67
2021/06/28 01:18:27;;;;;;;0.00;0.00;;;17.00;99.90;;;;;;4971833;28;20691;-69
2021/06/28 01:20:55;;;;;;;0.00;0.00;;;17.00;99.90;;;;;;4972515;28;20226;-71
2021/06/28 01:23:25;;;;;;;0.00;0.00;;;17.00;99.90;;;;;;4971952;28;20538;-68
2021/06/28 01:25:54;;;;;;;0.00;0.00;;;17.10;99.90;;;;;;4972072;28;20253;-75
2021/06/28 01:28:22;;;;;;;0.00;0.00;;;17.10;99.90;;;;;;4972246;28;20284;-70
2021/06/28 01:30:51;;;;;;;0.00;0.00;;;17.00;99.90;;;;;;4968362;28;20818;-68
2021/06/28 01:33:18;;;;;;;0.00;0.00;;;17.00;99.90;;;;;;4969088;28;20206;-70
2021/06/28 01:35:45;;;;;;;0.00;0.00;;;17.00;99.90;;;;;;4971036;28;20260;-67
2021/06/28 01:38:12;;;;;;;0.00;0.00;;;17.00;99.90;;;;;;4962801;28;20200;-71
2021/06/28 01:40:42;;;;;;;0.00;0.00;;;17.00;99.90;;;;;;4968770;28;20238;-72
2021/06/28 01:43:10;;;;;;;0.00;0.00;;;16.90;99.90;;;;;;4970299;28;20206;-70
2021/06/28 01:45:37;;;;;;;0.00;0.00;;;16.90;99.90;;;;;;4984408;28;21431;-70
2021/06/28 01:48:05;;;;;;;0.00;0.00;;;16.90;99.90;;;;;;4972655;28;20288;-70
2021/06/28 01:50:35;;;;;;;0.00;0.00;;;16.90;99.90;;;;;;4968889;28;20199;-68
2021/06/28 01:53:03;;;;;;;0.00;0.00;;;16.90;99.90;;;;;;4970499;28;20198;-71
2021/06/28 01:55:31;;;;;;;0.00;0.00;;;16.90;99.90;;;;;;4968892;28;20568;-72
2021/06/28 01:58:02;;;;;;;0.00;0.00;;;16.90;99.90;;;;;;4968598;28;20234;-68
2021/06/28 02:00:31;;;;;;;0.00;0.00;;;16.90;99.90;;;;;;4965371;28;20210;-71
2021/06/28 02:03:03;;;;;;;0.00;0.00;;;16.80;99.90;;;;;;4967703;28;20225;-69
2021/06/28 02:05:33;;;;;;;0.00;0.00;;;16.80;99.90;;;;;;4967126;28;20202;-71
2021/06/28 02:08:01;;;;;;;0.00;0.00;;;16.80;99.90;;;;;;4969351;28;20632;-72
2021/06/28 02:10:29;;;;;;;0.00;0.00;;;16.80;99.90;;;;;;4969001;28;20342;-72
2021/06/28 02:12:56;;;;;;;0.00;0.00;;;16.80;99.90;;;;;;4966963;28;20214;-70
2021/06/28 02:15:26;;;;;;;0.00;0.00;;;16.70;99.90;;;;;;4970158;28;20210;-73
2021/06/28 02:17:53;;;;;;;0.00;0.00;;;16.70;99.90;;;;;;4967390;28;20202;-69
2021/06/28 02:20:21;;;;;;;0.00;0.00;;;16.60;99.90;;;;;;4969436;28;20206;-68
2021/06/28 02:22:50;;;;;;;0.00;0.00;;;16.50;99.90;;;;;;4969869;28;20238;-71
2021/06/28 02:25:17;;;;;;;0.00;0.00;;;16.40;99.90;;;;;;4968886;28;20206;-65
2021/06/28 02:27:44;;;;;;;0.00;0.00;;;16.40;99.90;;;;;;4968863;28;20257;-73
2021/06/28 02:30:15;;;;;;;0.00;0.00;;;16.30;99.90;;;;;;4968507;28;20198;-72
2021/06/28 02:32:45;;;;;;;0.00;0.00;;;16.30;99.90;;;;;;4967862;28;20202;-71
2021/06/28 02:35:13;;;;;;;0.00;0.00;;;16.20;99.90;;;;;;4965854;28;20241;-68
2021/06/28 02:37:41;;;;;;;0.00;0.00;;;16.20;99.90;;;;;;4970488;28;20265;-67
2021/06/28 02:40:11;;;;;;;0.00;0.00;;;16.20;99.90;;;;;;4967492;28;20211;-66
2021/06/28 02:42:38;;;;;;;0.00;0.00;;;16.20;99.90;;;;;;4968914;28;20238;-69
2021/06/28 02:45:07;;;;;;;0.00;0.00;;;16.20;99.90;;;;;;4968455;28;20202;-69
2021/06/28 02:47:35;;;;;;;0.00;0.00;;;16.20;99.90;;;;;;4968197;28;20210;-66
2021/06/28 02:50:07;;;;;;;0.00;0.00;;;16.20;99.90;;;;;;4969434;28;20255;-70
2021/06/28 02:52:34;;;;;;;0.00;0.00;;;16.20;99.90;;;;;;4970347;28;20206;-67
2021/06/28 02:55:01;;;;;;;0.00;0.00;;;16.20;99.90;;;;;;4969486;28;20207;-69
2021/06/28 02:57:28;;;;;;;0.00;0.00;;;16.20;99.90;;;;;;4968646;28;20230;-68
2021/06/28 02:59:55;;;;;;;0.00;0.00;;;16.20;99.90;;;;;;4968458;28;20206;-72
2021/06/28 03:02:22;;;;;;;0.00;0.00;;;16.20;99.90;;;;;;4968623;28;20277;-71
2021/06/28 03:04:49;;;;;;;0.00;0.00;;;16.20;99.90;;;;;;4966603;28;20628;-71
2021/06/28 03:07:17;;;;;;;0.00;0.00;;;16.10;99.90;;;;;;4968636;28;20611;-68
2021/06/28 03:09:44;;;;;;;0.00;0.00;;;16.20;99.90;;;;;;4967407;28;20210;-67
2021/06/28 03:12:12;;;;;;;0.00;0.00;;;16.20;99.90;;;;;;4968969;28;20198;-69
2021/06/28 03:14:39;;;;;;;0.00;0.00;;;16.20;99.90;;;;;;4969494;28;20206;-71
2021/06/28 03:17:06;;;;;;;0.00;0.00;;;16.20;99.90;;;;;;4959594;28;20218;-68
2021/06/28 03:19:33;;;;;;;0.00;0.00;;;16.10;99.90;;;;;;4971761;28;20214;-70
2021/06/28 03:22:00;;;;;;;0.00;0.00;;;16.10;99.90;;;;;;4974264;28;20222;-71
2021/06/28 03:24:29;;;;;;;0.00;0.00;;;16.10;99.90;;;;;;4972364;28;20202;-69
2021/06/28 03:26:55;;;;;;;0.00;0.00;;;16.10;99.90;;;;;;4972939;28;20619;-71
2021/06/28 03:29:23;;;;;;;0.00;0.00;;;16.20;99.90;;;;;;4969683;28;20647;-67
2021/06/28 03:31:50;;;;;;;0.00;0.00;;;16.10;99.90;;;;;;4972352;28;20257;-68
2021/06/28 03:34:17;;;;;;;0.00;0.00;;;16.20;99.90;;;;;;4971508;28;20202;-68
2021/06/28 03:36:44;;;;;;;0.00;0.00;;;16.10;99.90;;;;;;4970773;28;20254;-65
2021/06/28 03:39:11;;;;;;;0.00;0.00;;;16.10;99.90;;;;;;4971483;28;20659;-67
2021/06/28 03:41:40;;;;;;;0.00;0.00;;;16.10;99.90;;;;;;4972371;28;20229;-72
2021/06/28 03:44:07;;;;;;;0.00;0.00;;;16.10;99.90;;;;;;4971011;28;20201;-65
2021/06/28 03:46:34;;;;;;;0.00;0.00;;;16.10;99.90;;;;;;4972958;28;20539;-70
2021/06/28 03:49:01;;;;;;;0.00;0.00;;;16.10;99.90;;;;;;4971782;28;20206;-67
2021/06/28 03:51:28;;;;;;;0.00;0.00;;;16.10;99.90;;;;;;4971052;28;20260;-66
2021/06/28 03:53:55;;;;;;;0.00;0.00;;;16.10;99.90;;;;;;4972223;28;20233;-65
2021/06/28 03:56:22;;;;;;;0.20;0.20;;;16.10;99.90;;;;;;4969753;28;20234;-66
2021/06/28 03:58:50;;;;;;;0.00;0.00;;;16.10;99.90;;;;;;4973136;28;20206;-66
2021/06/28 04:01:17;;;;;;;0.00;0.00;;;16.20;99.90;;;;;;4968577;28;20664;-69
2021/06/28 04:03:44;;;;;;;0.00;0.00;;;16.30;99.90;;;;;;4968357;28;20249;-69
2021/06/28 04:06:11;;;;;;;0.00;0.00;;;16.50;99.90;;;;;;4972008;28;20202;-65
2021/06/28 04:08:40;;;;;;;0.00;0.00;;;16.50;99.90;;;;;;4971504;28;20211;-65
2021/06/28 04:11:08;;;;;;;0.00;0.00;;;16.60;99.90;;;;;;4970192;28;20257;-65
2021/06/28 04:13:35;;;;;;;0.00;0.00;;;16.70;99.90;;;;;;4971573;28;20281;-65
2021/06/28 04:16:03;;;;;;;0.00;0.00;;;16.70;99.90;;;;;;4968609;28;20210;-67
2021/06/28 04:18:30;;;;;;;0.00;0.00;;;16.80;99.90;;;;;;4971064;28;20206;-66
2021/06/28 04:20:58;;;;;;;0.00;0.00;;;16.80;99.90;;;;;;4968873;28;20656;-65
2021/06/28 04:23:25;;;;;;;0.00;0.00;;;16.90;99.90;;;;;;4972116;28;20300;-64
2021/06/28 04:25:52;;;;;;;0.00;0.00;;;17.00;99.90;;;;;;4971271;28;20203;-65
2021/06/28 04:28:19;;;;;;;0.00;0.00;;;17.00;99.90;;;;;;4980260;28;20198;-65
2021/06/28 04:30:46;;;;;;;0.00;0.00;;;17.00;99.90;;;;;;4970448;28;20198;-64
2021/06/28 04:33:14;;;;;;;0.00;0.00;;;17.00;99.90;;;;;;4973944;28;20214;-70
2021/06/28 04:35:41;;;;;;;0.00;0.00;;;17.10;99.90;;;;;;4973527;28;20252;-67
2021/06/28 04:38:09;;;;;;;0.00;0.00;;;17.20;99.90;;;;;;4973738;28;20618;-67
2021/06/28 04:40:36;;;;;;;0.00;0.00;;;17.20;99.90;;;;;;4972533;28;20206;-65
2021/06/28 04:43:03;;;;;;;0.00;0.00;;;17.30;99.90;;;;;;4972520;28;20281;-69
2021/06/28 04:45:30;;;;;;;0.00;0.00;;;17.40;99.90;;;;;;4973557;28;20210;-68
2021/06/28 04:47:58;;;;;;;0.00;0.00;;;17.40;99.90;;;;;;4972091;28;20257;-69
2021/06/28 04:50:26;;;;;;;0.00;0.00;;;17.50;99.90;;;;;;4972863;28;20261;-67
2021/06/28 04:52:54;;;;;;;0.00;0.00;;;17.50;99.90;;;;;;4973445;28;20266;-66
2021/06/28 04:55:23;;;;;;;0.00;0.00;;;17.60;99.90;;;;;;4968661;28;20206;-69
2021/06/28 04:57:50;;;;;;;0.00;0.00;;;17.60;99.90;;;;;;4973352;28;20202;-70
2021/06/28 05:00:20;;;;;;;0.00;0.00;;;17.70;99.90;;;;;;4967108;28;20230;-64
2021/06/28 05:02:48;;;;;;;0.00;0.00;;;17.70;99.90;;;;;;4970588;28;20321;-73
2021/06/28 05:05:15;;;;;;;0.00;0.00;;;17.70;99.90;;;;;;4969763;28;20214;-67
2021/06/28 05:07:44;;;;;;;0.00;0.00;;;17.70;99.90;;;;;;4970686;28;20203;-68
2021/06/28 05:10:13;;;;;;;0.00;0.00;;;17.80;99.90;;;;;;4969088;28;20253;-67
2021/06/28 05:12:41;;;;;;;0.00;0.00;;;17.80;99.90;;;;;;4972211;28;20217;-72
2021/06/28 05:15:09;;;;;;;0.00;0.00;;;17.80;99.90;;;;;;4964463;28;20210;-70
2021/06/28 05:17:36;;;;;;;0.00;0.00;;;17.90;99.90;;;;;;4964282;28;20202;-72
2021/06/28 05:20:04;;;;;;;0.00;0.00;;;17.90;99.90;;;;;;4970618;28;20206;-68
2021/06/28 05:22:31;;;;;;;0.00;0.00;;;18.00;99.90;;;;;;4973163;28;20249;-67
2021/06/28 05:25:00;;;;;;;0.00;0.00;;;18.00;99.90;;;;;;4971796;28;20203;-70
2021/06/28 05:27:27;;;;;;;0.00;0.00;;;18.00;99.90;;;;;;4970993;28;20723;-65
2021/06/28 05:29:56;;;;;;;0.30;0.30;;;18.00;99.90;;;;;;4965615;28;20675;-69
2021/06/28 05:32:23;;;;;;;0.00;0.00;;;18.10;99.90;;;;;;4970081;28;20217;-68
2021/06/28 05:34:51;;;;;;;0.20;0.20;;;18.10;99.90;;;;;;4970031;28;20210;-68
2021/06/28 05:37:18;;;;;;;0.00;0.00;;;18.10;99.90;;;;;;4965972;28;20652;-69
2021/06/28 05:39:45;;;;;;;0.00;0.00;;;18.10;99.90;;;;;;4972197;28;20197;-70
2021/06/28 05:42:14;;;;;;;0.00;0.00;;;18.10;99.90;;;;;;4983216;28;20256;-69
2021/06/28 05:44:42;;;;;;;0.00;0.00;;;18.20;99.90;;;;;;4969131;28;20672;-69
2021/06/28 05:47:11;;;;;;;0.00;0.00;;;18.30;99.90;;;;;;4968935;28;20195;-66
2021/06/28 05:49:40;;;;;;;0.00;0.00;;;18.30;99.90;;;;;;4969703;28;20202;-69
2021/06/28 05:52:08;;;;;;;0.00;0.00;;;18.30;99.90;;;;;;4970832;28;20209;-63
2021/06/28 05:54:35;;;;;;;0.00;0.00;;;18.40;99.90;;;;;;4968643;28;20273;-68
2021/06/28 05:57:02;;;;;;;0.00;0.00;;;18.40;99.90;;;;;;4969105;28;20230;-64
2021/06/28 05:59:30;;;;;;;0.00;0.00;;;18.50;99.90;;;;;;4967289;28;20207;-64
2021/06/28 06:01:57;;;;;;;0.00;0.00;;;18.50;99.90;;;;;;4963598;28;20210;-67
2021/06/28 06:04:24;;;;;;;0.00;0.00;;;18.60;99.90;;;;;;4969940;28;20234;-67
2021/06/28 06:06:51;;;;;;;0.00;0.00;;;18.80;99.90;;;;;;4972948;28;20205;-66
2021/06/28 06:09:18;;;;;;;0.00;0.00;;;18.90;99.90;;;;;;4970445;28;20206;-68
2021/06/28 06:11:45;;;;;;;0.00;0.00;;;18.90;99.90;;;;;;4972719;28;20257;-68
2021/06/28 06:14:13;;;;;;;0.00;0.00;;;19.10;99.90;;;;;;4974200;28;20221;-65
2021/06/28 06:16:42;;;;;;;0.00;0.00;;;19.20;99.90;;;;;;4977824;28;20264;-64
2021/06/28 06:19:09;;;;;;;0.00;0.00;;;19.30;99.90;;;;;;4984487;28;20273;-65
2021/06/28 06:21:36;;;;;;;0.00;0.00;;;19.30;99.90;;;;;;4983041;28;20209;-65
2021/06/28 06:24:07;;;;;;;0.00;0.00;;;19.40;99.90;;;;;;4973490;28;20782;-64
2021/06/28 06:26:34;;;;;;;0.00;0.00;;;19.50;99.90;;;;;;4968345;28;20277;-65
2021/06/28 06:29:01;;;;;;;0.00;0.00;;;19.60;99.90;;;;;;4961411;28;20628;-68
2021/06/28 06:31:28;;;;;;;0.00;0.00;;;19.70;99.90;;;;;;4963575;28;20210;-65
2021/06/28 06:33:57;;;;;;;0.00;0.00;;;19.70;99.90;;;;;;4961715;28;20207;-66
2021/06/28 06:36:24;;;;;;;0.27;0.23;;;19.70;99.90;;;;;;4960712;28;20218;-69
2021/06/28 06:38:51;;;;;;;0.00;0.00;;;19.70;99.90;;;;;;4962968;28;20206;-68
2021/06/28 06:41:18;;;;;;;0.00;0.00;;;19.80;99.90;;;;;;4962410;28;20243;-67
2021/06/28 06:43:45;;;;;;;0.20;0.20;;;20.10;99.90;;;;;;4964593;28;20234;-64
2021/06/28 06:46:12;;;;;;;0.00;0.00;;;20.10;99.90;;;;;;4966819;28;20198;-70
2021/06/28 06:48:39;;;;;;;0.00;0.00;;;20.10;99.90;;;;;;4961752;28;20206;-65
2021/06/28 06:51:07;;;;;;;0.00;0.00;;;20.20;99.90;;;;;;4958992;28;20206;-65
2021/06/28 06:53:34;;;;;;;0.00;0.00;;;20.60;99.90;;;;;;4962257;28;20273;-68
2021/06/28 06:56:05;;;;;;;0.00;0.00;;;20.90;99.90;;;;;;4963633;28;20297;-65
2021/06/28 06:58:32;;;;;;;2.50;1.48;;;21.30;99.90;;;;;;4961583;28;20615;-65
2021/06/28 07:00:59;;;;;;;0.00;0.00;;;21.40;99.90;;;;;;4960957;28;20797;-65
2021/06/28 07:03:26;;;;;;;1.95;1.85;;;21.60;99.90;;;;;;4965926;28;20317;-64
2021/06/28 07:05:54;;;;;;;0.00;0.00;;;21.40;99.90;;;;;;4967005;28;20213;-64
2021/06/28 07:08:22;;;;;;;0.00;0.00;;;21.20;99.90;;;;;;4963665;28;20289;-66
2021/06/28 07:10:49;;;;;;;0.00;0.00;;;21.30;99.90;;;;;;4959392;28;20625;-67
2021/06/28 07:13:16;;;;;;;0.00;0.00;;;21.30;99.90;;;;;;4961394;28;20285;-67
2021/06/28 07:15:43;;;;;;;0.38;0.38;;;21.10;99.90;;;;;;4962498;28;20210;-71
2021/06/28 07:18:10;;;;;;;0.00;0.00;;;21.20;99.90;;;;;;4963779;28;20210;-68
2021/06/28 07:20:37;;;;;;;0.52;0.52;;;21.30;99.90;;;;;;4962372;28;20210;-66
2021/06/28 07:23:04;;;;;;;2.88;2.63;;;21.10;99.90;;;;;;4962495;28;20703;-64
2021/06/28 07:25:33;;;;;;;0.00;0.00;;;20.80;99.90;;;;;;4964519;28;20206;-64
2021/06/28 07:28:00;;;;;;;0.00;0.00;;;20.90;99.90;;;;;;4967084;28;20206;-68
2021/06/28 07:30:28;;;;;;;0.00;0.00;;;21.40;99.90;;;;;;4968265;28;20213;-64
2021/06/28 07:32:55;;;;;;;0.65;0.65;;;22.00;99.90;;;;;;4968265;28;20306;-64
2021/06/28 07:35:23;;;;;;;0.00;0.00;;;22.10;99.90;;;;;;4968439;28;20624;-66
2021/06/28 07:37:50;;;;;;;0.98;0.95;;;22.20;99.90;;;;;;4968695;28;20978;-64
2021/06/28 07:40:19;;;;;;;1.75;1.65;;;22.30;99.90;;;;;;4967767;28;20199;-67
2021/06/28 07:42:48;;;;;;;0.45;0.45;;;22.40;99.90;;;;;;4968412;28;20253;-65
2021/06/28 07:45:16;;;;;;;0.00;0.00;;;22.30;99.90;;;;;;4967411;28;20260;-67
2021/06/28 07:47:45;;;;;;;0.20;0.20;;;22.70;99.90;;;;;;4967586;28;20207;-69
2021/06/28 07:50:13;;;;;;;0.00;0.00;;;23.00;99.90;;;;;;4967821;28;20262;-68
2021/06/28 07:52:40;;;;;;;0.03;0.03;;;22.70;99.90;;;;;;4960987;28;20297;-66
2021/06/28 07:55:10;;;;;;;0.05;0.05;;;22.60;99.90;;;;;;4963689;28;20198;-71
2021/06/28 07:57:38;;;;;;;0.00;0.00;;;22.50;99.90;;;;;;4968373;28;20661;-65
2021/06/28 08:00:09;;;;;;;0.00;0.00;;;22.60;99.90;;;;;;4971299;28;20257;-66
2021/06/28 08:02:36;;;;;;;0.08;0.08;;;22.70;99.90;;;;;;4976420;28;20261;-66
2021/06/28 08:05:03;;;;;;;0.00;0.00;;;23.00;99.90;;;;;;4975944;28;20229;-70
2021/06/28 08:07:30;;;;;;;0.00;0.00;;;22.80;99.90;;;;;;4973523;28;20210;-70
2021/06/28 08:09:57;;;;;;;0.00;0.00;;;23.10;99.90;;;;;;4970214;28;20202;-68
2021/06/28 08:12:25;;;;;;;0.00;0.00;;;23.10;99.90;;;;;;4973608;28;20209;-69
2021/06/28 08:14:52;;;;;;;3.78;3.38;;;22.80;99.90;;;;;;4975657;28;20210;-71
2021/06/28 08:17:21;;;;;;;0.00;0.00;;;22.30;99.90;;;;;;4974679;28;20305;-66
2021/06/28 08:19:48;;;;;;;0.00;0.00;;;21.90;99.90;;;;;;4976354;28;20613;-71
2021/06/28 08:22:15;;;;;;;0.00;0.00;;;21.70;99.90;;;;;;4962682;28;20206;-68
2021/06/28 08:24:42;;;;;;;0.05;0.05;;;21.80;99.90;;;;;;4963779;28;20234;-67
2021/06/28 08:27:10;;;;;;;0.10;0.10;;;21.70;99.90;;;;;;4964063;28;20206;-66
2021/06/28 08:29:38;;;;;;;0.10;0.10;;;21.70;99.90;;;;;;4965995;28;20202;-66
2021/06/28 08:32:06;;;;;;;0.00;0.00;;;21.80;99.90;;;;;;4963287;28;20217;-67
2021/06/28 08:34:34;;;;;;;0.00;0.00;;;21.80;99.90;;;;;;4966076;28;20202;-69
2021/06/28 08:37:01;;;;;;;0.00;0.00;;;21.80;99.90;;;;;;4969250;28;20206;-70
2021/06/28 08:39:29;;;;;;;0.00;0.00;;;21.80;99.90;;;;;;4967971;28;20214;-65
2021/06/28 08:41:56;;;;;;;0.00;0.00;;;21.70;99.90;;;;;;4971184;28;20206;-71
2021/06/28 08:44:24;;;;;;;0.00;0.00;;;21.70;99.90;;;;;;4968643;28;20650;-69
2021/06/28 08:46:51;;;;;;;0.00;0.00;;;21.70;99.90;;;;;;4963379;28;20621;-67
2021/06/28 08:49:19;;;;;;;0.00;0.00;;;21.80;99.90;;;;;;4966365;28;20211;-68
2021/06/28 08:51:47;;;;;;;0.00;0.00;;;21.70;99.90;;;;;;4964242;28;20668;-65
2021/06/28 08:54:15;;;;;;;0.00;0.00;;;21.60;99.90;;;;;;4965182;28;20207;-70
2021/06/28 08:56:44;;;;;;;0.00;0.00;;;21.50;99.90;;;;;;4963894;28;20237;-70
2021/06/28 08:59:12;;;;;;;0.00;0.00;;;21.50;99.90;;;;;;4964983;28;20198;-73
2021/06/28 09:01:40;;;;;;;0.00;0.00;;;21.50;99.90;;;;;;4962263;28;20207;-67
2021/06/28 09:04:08;;;;;;;0.00;0.00;;;21.50;99.90;;;;;;4961936;28;20737;-67
2021/06/28 09:06:36;;;;;;;0.00;0.00;;;21.60;99.90;;;;;;4964354;28;20211;-74
2021/06/28 09:09:08;;;;;;;0.10;0.10;;;21.70;99.90;;;;;;4964751;28;20309;-70
2021/06/28 09:11:36;;;;;;;0.00;0.00;;;21.70;99.90;;;;;;4967483;28;20239;-68
2021/06/28 09:14:06;;;;;;;0.00;0.00;;;21.70;99.90;;;;;;4964580;28;20202;-70
2021/06/28 09:16:34;;;;;;;0.00;0.00;;;21.80;99.90;;;;;;4962588;28;20711;-66
2021/06/28 09:19:03;;;;;;;0.70;0.70;;;21.80;99.90;;;;;;4961670;28;20206;-67
2021/06/28 09:21:34;;;;;;;0.00;0.00;;;21.80;99.90;;;;;;4963261;28;21109;-68
2021/06/28 09:24:02;;;;;;;0.00;0.00;;;21.90;99.90;;;;;;4966555;28;20234;-69
2021/06/28 09:26:36;;;;;;;0.00;0.00;;;21.90;99.90;;;;;;4965641;28;20304;-66
2021/06/28 09:29:05;;;;;;;0.00;0.00;;;21.90;99.90;;;;;;4964537;28;20206;-68
2021/06/28 09:31:43;;;;;;;0.00;0.00;;;22.00;99.90;;;;;;4964677;28;20288;-71
2021/06/28 09:34:15;;;;;;;0.00;0.00;;;22.00;99.90;;;;;;4964280;28;20215;-67
2021/06/28 09:36:46;;;;;;;0.00;0.00;;;22.10;99.90;;;;;;4963154;28;20229;-71
2021/06/28 09:39:18;;;;;;;0.10;0.10;;;22.30;99.90;;;;;;4963817;28;20210;-65
2021/06/28 09:41:47;;;;;;;0.00;0.00;;;22.40;99.90;;;;;;4962262;28;20207;-67
2021/06/28 09:44:14;;;;;;;1.60;0.30;;;22.70;99.90;;;;;;4964810;28;20222;-62
2021/06/28 09:46:41;;;;;;;0.00;0.00;;;22.70;99.90;;;;;;4970319;28;20238;-72
2021/06/28 09:49:17;;;;;;;0.00;0.00;;;22.70;99.90;;;;;;4966007;28;20207;-72
2021/06/28 09:51:44;;;;;;;0.10;0.10;;;22.60;99.90;;;;;;4973229;28;20666;-71
2021/06/28 09:54:21;;;;;;;0.00;0.00;;;22.50;99.90;;;;;;4974564;28;20210;-67
2021/06/28 09:56:52;;;;;;;0.00;0.00;;;22.60;99.90;;;;;;4972686;28;20234;-67
2021/06/28 09:59:27;;;;;;;0.00;0.00;;;22.60;99.90;;;;;;4974477;28;20217;-70
2021/06/28 10:02:14;;;;;;;0.00;0.00;;;22.60;99.90;;;;;;4975131;28;20201;-69
2021/06/28 10:05:15;;;;;;;0.10;0.10;;;22.60;99.90;;;;;;4970960;28;20232;-67
2021/06/28 10:07:42;;;;;;;0.03;0.03;;;22.50;99.90;;;;;;4973239;28;20660;-74
2021/06/28 10:10:18;;;;;;;0.00;0.00;;;22.40;99.90;;;;;;4973813;28;20610;-71
2021/06/28 10:12:49;;;;;;;0.00;0.00;;;22.30;99.90;;;;;;4974021;28;20205;-69
2021/06/28 10:15:18;;;;;;;0.00;0.00;;;22.20;99.90;;;;;;4978763;28;20222;-68
2021/06/28 10:17:46;;;;;;;0.00;0.00;;;22.10;99.90;;;;;;4972055;28;20686;-69
2021/06/28 10:20:16;;;;;;;0.00;0.00;;;22.10;99.90;;;;;;4986873;28;20210;-70
2021/06/28 10:22:45;;;;;;;0.00;0.00;;;22.10;99.90;;;;;;4967059;28;20622;-67
2021/06/28 10:25:14;;;;;;;0.00;0.00;;;22.10;99.90;;;;;;4980363;28;20275;-70
2021/06/28 10:27:42;;;;;;;0.00;0.00;;;22.00;99.90;;;;;;4972710;28;20257;-70
2021/06/28 10:30:13;;;;;;;0.00;0.00;;;22.00;99.90;;;;;;4964385;28;20206;-69
2021/06/28 10:32:41;;;;;;;0.00;0.00;;;22.00;99.90;;;;;;4971306;28;20238;-69
2021/06/28 10:35:10;;;;;;;0.00;0.00;;;22.00;99.90;;;;;;4974055;28;20206;-68
2021/06/28 10:37:39;;;;;;;0.00;0.00;;;22.00;99.90;;;;;;4968250;28;20548;-66
2021/06/28 10:40:11;;;;;;;0.00;0.00;;;22.10;99.90;;;;;;4958062;28;20717;-70
2021/06/28 10:42:40;;;;;;;0.00;0.00;;;22.20;99.90;;;;;;4962512;28;20210;-70
2021/06/28 10:45:12;;;;;;;0.10;0.10;;;22.20;99.90;;;;;;4961050;28;20286;-70
2021/06/28 10:47:41;;;;;;;0.00;0.00;;;22.20;99.90;;;;;;4959197;28;20202;-72
2021/06/28 10:50:09;;;;;;;0.13;0.13;;;22.30;99.90;;;;;;4964107;28;20207;-68
2021/06/28 10:52:50;;;;;;;0.00;0.00;;;22.40;99.90;;;;;;4960408;28;20257;-68
2021/06/28 10:55:41;;;;;;;0.00;0.00;;;22.30;99.90;;;;;;4960557;28;20206;-70
2021/06/28 10:58:28;;;;;;;0.00;0.00;;;22.40;99.90;;;;;;4949132;28;20206;-69
2021/06/28 11:01:04;;;;;;;0.20;0.20;;;22.40;99.90;;;;;;4960783;28;20342;-68
2021/06/28 11:03:34;;;;;;;0.00;0.00;;;22.50;99.90;;;;;;4961823;28;20210;-70
2021/06/28 11:06:22;;;;;;;0.00;0.00;;;22.50;99.90;;;;;;4959454;28;20210;-73
2021/06/28 11:09:06;;;;;;;0.00;0.00;;;22.50;99.90;;;;;;4959537;28;20217;-69
2021/06/28 11:11:57;;;;;;;1.25;1.25;;;22.60;99.90;;;;;;4960224;28;20206;-66
2021/06/28 11:14:41;;;;;;;0.00;0.00;;;22.70;99.90;;;;;;4947441;28;20218;-69
2021/06/28 11:17:11;;;;;;;0.00;0.00;;;22.60;99.90;;;;;;4962273;28;21221;-66
2021/06/28 11:20:05;;;;;;;0.00;0.00;;;22.60;99.90;;;;;;4962502;28;20273;-67
2021/06/28 11:22:43;;;;;;;0.00;0.00;;;22.70;99.90;;;;;;4971496;28;20210;-70
2021/06/28 11:25:24;;;;;;;0.00;0.00;;;22.70;99.90;;;;;;4961605;28;20237;-70
2021/06/28 11:28:11;;;;;;;0.00;0.00;;;22.80;99.90;;;;;;4961334;28;20209;-72
2021/06/28 11:30:50;;;;;;;0.00;0.00;;;22.90;99.90;;;;;;4959094;28;20269;-71
2021/06/28 11:33:42;;;;;;;0.00;0.00;;;23.00;99.90;;;;;;4960854;28;20206;-71
2021/06/28 11:36:31;;;;;;;0.00;0.00;;;23.00;99.90;;;;;;4964193;28;20211;-71
2021/06/28 11:39:00;;;;;;;0.52;0.52;;;23.00;99.90;;;;;;4961629;28;20679;-71
2021/06/28 11:41:28;;;;;;;0.00;0.00;;;22.80;99.90;;;;;;4963720;28;20288;-71
2021/06/28 11:43:57;;;;;;;0.15;0.15;;;22.50;99.90;;;;;;4975136;28;20221;-72
2021/06/28 11:46:26;;;;;;;0.00;0.00;;;22.40;99.90;;;;;;4976896;28;20252;-69
2021/06/28 11:48:58;;;;;;;0.00;0.00;;;22.30;99.90;;;;;;4976131;28;20237;-72
2021/06/28 11:51:26;;;;;;;0.00;0.00;;;22.30;99.90;;;;;;4964777;28;20210;-70
2021/06/28 11:53:57;;;;;;;0.00;0.00;;;22.30;99.90;;;;;;4961649;28;20221;-70
2021/06/28 11:56:26;;;;;;;0.00;0.00;;;22.30;99.90;;;;;;4966903;28;20230;-71
2021/06/28 11:58:55;;;;;;;0.00;0.00;;;22.20;99.90;;;;;;4964589;28;20273;-69
2021/06/28 12:01:23;;;;;;;0.00;0.00;;;22.20;99.90;;;;;;4964892;28;20210;-70
2021/06/28 12:03:50;;;;;;;0.00;0.00;;;22.10;99.90;;;;;;4964081;28;20688;-71
2021/06/28 12:06:19;;;;;;;0.75;0.75;;;22.10;99.90;;;;;;4971711;28;20258;-71
2021/06/28 12:08:46;;;;;;;0.00;0.00;;;22.10;99.90;;;;;;4979148;28;20570;-69
2021/06/28 12:11:14;;;;;;;2.13;1.95;;;22.00;99.90;;;;;;4976453;28;20656;-69
2021/06/28 12:13:44;;;;;;;1.35;1.17;;;22.00;99.90;;;;;;4977374;28;20237;-70
2021/06/28 12:16:16;;;;;;;1.08;1.00;;;21.90;99.90;;;;;;4981847;28;20296;-71
2021/06/28 12:18:43;;;;;;;0.08;0.08;;;21.90;99.90;;;;;;4977365;28;20206;-71
2021/06/28 12:21:10;;;;;;;1.40;1.33;;;21.90;99.90;;;;;;4965050;28;20331;-71
2021/06/28 12:23:39;;;;;;;12.48;6.45;;;21.90;99.90;;;;;;4964340;28;20312;-70
2021/06/28 12:26:10;;;;;;;3.58;2.05;;;22.00;99.90;;;;;;4964395;28;20718;-73
2021/06/28 12:28:38;;;;;;;0.30;0.30;;;21.90;99.90;;;;;;4961408;28;20203;-69
2021/06/28 12:31:14;;;;;;;0.00;0.00;;;21.90;99.90;;;;;;4962985;28;20695;-70
2021/06/28 12:33:41;;;;;;;3.15;2.92;;;21.80;99.90;;;;;;4963834;28;20268;-69
2021/06/28 12:36:08;;;;;;;1.45;1.35;;;21.70;99.90;;;;;;4962269;28;20210;-69
2021/06/28 12:38:36;;;;;;;1.25;1.25;;;21.70;99.90;;;;;;4964508;28;20554;-68
2021/06/28 12:41:05;;;;;;;0.30;0.30;;;21.60;99.90;;;;;;4963891;28;20210;-68
2021/06/28 12:43:32;;;;;;;0.00;0.00;;;21.60;99.90;;;;;;4961455;28;20203;-68
2021/06/28 12:45:59;;;;;;;0.20;0.20;;;21.50;99.90;;;;;;4961697;28;20237;-67
2021/06/28 12:48:29;;;;;;;0.00;0.00;;;21.60;99.90;;;;;;4963178;28;20211;-74
2021/06/28 12:50:57;;;;;;;0.43;0.43;;;21.50;99.90;;;;;;4962474;28;20214;-70
2021/06/28 12:53:26;;;;;;;1.50;1.23;;;21.60;99.90;;;;;;4959967;28;21128;-69
2021/06/28 12:56:06;;;;;;;2.33;0.63;;;21.60;99.90;;;;;;4960388;28;20264;-68
2021/06/28 12:58:43;;;;;;;2.75;2.45;;;21.50;99.90;;;;;;4962656;28;20218;-68